Terminal Aerodrome Forecast
Issued by NWS Charleston, WV

Current Version | Previous Version | Text Only | Print | Product List | Glossary Off
Versions: 1 2 3 4 5 6 7 8 9 10 11 12 13 14 15 16 17 18 19 20 21 22 23 24 25

000
FTUS41 KRLX 261100
TAFBKW
TAF
KBKW 261125Z 2612/2712 18005KT 6SM -SN BR SCT011 OVC045
      TEMPO 2613/2617 2SM -SHSN BKN009
     FM261900 29004KT 2SM -SHSN BR OVC010
     FM262300 VRB03KT 4SM BR OVC025
     FM270800 00000KT 3SM -SHSN BR BKN020
     FM271000 00000KT 2SM -SHSN BR BKN020=

USA.gov is the U.S. government's official web portal to all federal, state and local government web resources and services.